createdAt,value
2019-05-25T00:01:49.640Z,19.00
2019-05-25T00:04:18.499Z,19.00
2019-05-25T00:06:47.377Z,19.00
2019-05-25T00:09:16.200Z,19.10
2019-05-25T00:11:45.099Z,19.10
2019-05-25T00:14:13.940Z,19.10
2019-05-25T00:16:42.791Z,19.10
2019-05-25T00:19:11.674Z,19.20
2019-05-25T00:21:40.515Z,19.10
2019-05-25T00:24:12.625Z,19.10
2019-05-25T00:26:39.865Z,19.10
2019-05-25T00:29:08.726Z,19.20
2019-05-25T00:31:37.632Z,19.20
2019-05-25T00:34:06.479Z,19.20
2019-05-25T00:36:35.316Z,19.20
2019-05-25T00:39:05.773Z,19.20
2019-05-25T00:41:34.627Z,19.10
2019-05-25T00:44:03.509Z,19.10
2019-05-25T00:46:32.337Z,19.10
2019-05-25T00:49:02.376Z,19.00
2019-05-25T00:51:31.266Z,19.00
2019-05-25T00:54:00.109Z,19.00
2019-05-25T00:56:29.001Z,19.00
2019-05-25T00:58:57.833Z,19.00
2019-05-25T01:01:26.686Z,19.00
2019-05-25T01:03:55.572Z,18.90
2019-05-25T01:06:24.422Z,18.90
2019-05-25T01:08:53.306Z,18.90
2019-05-25T01:11:22.152Z,18.90
2019-05-25T01:13:50.981Z,18.90
2019-05-25T01:16:19.859Z,18.90
2019-05-25T01:18:48.712Z,18.90
2019-05-25T01:21:17.601Z,18.80
2019-05-25T01:23:46.450Z,18.80
2019-05-25T01:26:15.302Z,18.80
2019-05-25T01:28:45.101Z,18.80
2019-05-25T01:31:13.989Z,18.80
2019-05-25T01:33:42.891Z,18.80
2019-05-25T01:36:11.741Z,18.80
2019-05-25T01:38:40.605Z,18.80
2019-05-25T01:41:09.480Z,18.70
2019-05-25T01:43:38.301Z,18.70
2019-05-25T01:46:07.170Z,18.60
2019-05-25T01:48:36.019Z,18.70
2019-05-25T01:51:04.917Z,18.70
2019-05-25T01:53:33.785Z,18.70
2019-05-25T01:56:02.599Z,18.60
2019-05-25T01:58:31.463Z,18.60
2019-05-25T02:01:00.293Z,18.60
2019-05-25T02:03:29.183Z,18.60
2019-05-25T02:05:58.017Z,18.60
2019-05-25T02:08:26.893Z,18.60
2019-05-25T02:10:55.772Z,18.60
2019-05-25T02:13:24.625Z,18.60
2019-05-25T02:15:53.526Z,18.60
2019-05-25T02:18:22.397Z,18.40
2019-05-25T02:20:51.251Z,18.50
2019-05-25T02:23:20.462Z,18.50
2019-05-25T02:25:49.248Z,18.40
2019-05-25T02:28:18.127Z,18.30
2019-05-25T02:30:47.025Z,18.20
2019-05-25T02:33:15.882Z,18.20
2019-05-25T02:35:44.743Z,18.20
2019-05-25T02:38:13.581Z,18.10
2019-05-25T02:40:42.489Z,18.00
2019-05-25T02:43:11.382Z,18.00
2019-05-25T02:45:40.188Z,18.00
2019-05-25T02:48:09.076Z,18.00
2019-05-25T02:50:37.920Z,18.00
2019-05-25T02:53:06.818Z,17.90
2019-05-25T02:55:35.706Z,17.90
2019-05-25T02:58:04.557Z,17.80
2019-05-25T03:00:35.081Z,17.80
2019-05-25T03:03:05.278Z,17.80
2019-05-25T03:05:34.264Z,17.80
2019-05-25T03:08:03.106Z,17.80
2019-05-25T03:10:32.662Z,17.80
2019-05-25T03:13:03.583Z,17.80
2019-05-25T03:15:32.526Z,17.80
2019-05-25T03:18:01.515Z,17.80
2019-05-25T03:20:30.339Z,17.80
2019-05-25T03:22:59.318Z,17.80
2019-05-25T03:25:28.237Z,17.80
2019-05-25T03:27:57.105Z,17.80
2019-05-25T03:30:37.127Z,17.70
2019-05-25T03:33:05.959Z,17.70
2019-05-25T03:35:34.846Z,17.70
2019-05-25T03:38:03.750Z,17.70
2019-05-25T03:40:32.568Z,17.70
2019-05-25T03:43:01.447Z,17.60
2019-05-25T03:45:30.306Z,17.60
2019-05-25T03:47:59.271Z,17.60
2019-05-25T03:50:28.151Z,17.60
2019-05-25T03:52:56.992Z,17.60
2019-05-25T03:55:25.859Z,17.70
2019-05-25T03:57:54.713Z,17.70
2019-05-25T04:00:35.331Z,17.70
2019-05-25T04:03:04.973Z,17.60
2019-05-25T04:05:34.025Z,17.60
2019-05-25T04:08:03.011Z,17.60
2019-05-25T04:10:31.843Z,17.70
2019-05-25T04:13:00.735Z,17.70
2019-05-25T04:15:29.573Z,17.70
2019-05-25T04:17:58.766Z,17.80
2019-05-25T04:20:27.771Z,18.00
2019-05-25T04:22:56.618Z,18.10
2019-05-25T04:25:25.527Z,18.10
2019-05-25T04:27:54.366Z,18.10
2019-05-25T04:30:23.304Z,18.30
2019-05-25T04:32:52.185Z,18.30
2019-05-25T04:35:21.019Z,18.40
2019-05-25T04:37:49.926Z,18.30
2019-05-25T04:40:18.764Z,18.40
2019-05-25T04:42:47.593Z,18.50
2019-05-25T04:45:16.592Z,18.60
2019-05-25T04:47:45.413Z,18.70
2019-05-25T04:50:15.597Z,18.70
2019-05-25T04:52:44.444Z,18.80
2019-05-25T04:55:13.366Z,19.00
2019-05-25T04:57:43.566Z,19.20
2019-05-25T05:00:12.712Z,19.20
2019-05-25T05:02:41.622Z,19.20
2019-05-25T05:05:10.553Z,19.30
2019-05-25T05:07:39.390Z,19.40
2019-05-25T05:10:08.893Z,19.50
2019-05-25T05:12:37.721Z,19.60
2019-05-25T05:15:07.431Z,19.60
2019-05-25T05:17:36.254Z,19.80
2019-05-25T05:20:09.565Z,20.00
2019-05-25T05:22:38.407Z,20.10
2019-05-25T05:25:09.092Z,20.20
2019-05-25T05:27:38.858Z,20.30
2019-05-25T05:30:09.225Z,20.40
2019-05-25T05:32:57.343Z,20.40
2019-05-25T05:35:26.173Z,20.20
2019-05-25T05:37:55.970Z,20.10
2019-05-25T05:40:25.218Z,20.20
2019-05-25T05:42:56.703Z,20.10
2019-05-25T05:45:27.558Z,20.10
2019-05-25T05:47:57.862Z,20.10
2019-05-25T05:50:26.735Z,20.00
2019-05-25T05:52:57.164Z,19.90
2019-05-25T05:55:32.859Z,20.00
2019-05-25T05:58:02.481Z,20.00
2019-05-25T06:00:31.461Z,19.90
2019-05-25T06:03:00.293Z,20.00
2019-05-25T06:05:29.188Z,20.20
2019-05-25T06:07:58.036Z,20.30
2019-05-25T06:10:26.882Z,20.40
2019-05-25T06:12:55.765Z,20.60
2019-05-25T06:15:24.603Z,20.70
2019-05-25T06:17:53.496Z,20.80
2019-05-25T06:20:22.351Z,20.60
2019-05-25T06:22:51.210Z,20.60
2019-05-25T06:25:22.268Z,20.70
2019-05-25T06:27:51.090Z,20.60
2019-05-25T06:30:20.489Z,20.70
2019-05-25T06:32:49.343Z,20.70
2019-05-25T06:35:18.299Z,20.80
2019-05-25T06:37:47.154Z,20.80
2019-05-25T06:40:17.123Z,20.80
2019-05-25T06:42:46.013Z,20.80
2019-05-25T06:45:16.314Z,20.80
2019-05-25T06:47:45.159Z,20.80
2019-05-25T06:50:14.526Z,21.10
2019-05-25T06:52:43.555Z,21.40
2019-05-25T06:55:12.497Z,21.50
2019-05-25T06:57:43.557Z,21.70
2019-05-25T07:00:12.693Z,21.70
2019-05-25T07:02:41.541Z,21.80
2019-05-25T07:05:10.769Z,22.00
2019-05-25T07:07:39.690Z,22.20
2019-05-25T07:10:10.737Z,22.30
2019-05-25T07:12:39.654Z,22.40
2019-05-25T07:15:09.489Z,22.60
2019-05-25T07:17:38.326Z,22.90
2019-05-25T07:20:08.316Z,23.30
2019-05-25T07:22:37.138Z,23.60
2019-05-25T07:25:07.831Z,24.10
2019-05-25T07:27:36.741Z,24.30
2019-05-25T07:30:07.636Z,24.00
2019-05-25T07:32:36.486Z,23.90
2019-05-25T07:35:08.641Z,23.90
2019-05-25T07:37:36.683Z,24.10
2019-05-25T07:40:07.206Z,24.10
2019-05-25T07:42:36.036Z,24.30
2019-05-25T07:45:06.775Z,24.50
2019-05-25T07:47:36.141Z,24.70
2019-05-25T07:50:09.752Z,25.10
2019-05-25T07:52:38.653Z,25.30
2019-05-25T07:55:07.669Z,25.40
2019-05-25T07:57:36.538Z,26.00
2019-05-25T08:00:08.973Z,26.10
2019-05-25T08:02:38.008Z,25.90
2019-05-25T08:05:07.447Z,25.70
2019-05-25T08:07:36.295Z,26.00
2019-05-25T08:10:06.545Z,25.90
2019-05-25T08:12:35.383Z,26.10
2019-05-25T08:15:06.125Z,26.20
2019-05-25T08:17:34.961Z,26.20
2019-05-25T08:20:05.273Z,26.40
2019-05-25T08:22:34.162Z,26.50
2019-05-25T08:25:03.127Z,26.60
2019-05-25T08:27:32.003Z,26.70
2019-05-25T08:30:00.829Z,26.70
2019-05-25T08:32:29.705Z,26.80
2019-05-25T08:34:58.595Z,27.00
2019-05-25T08:37:27.433Z,27.00
2019-05-25T08:39:56.311Z,27.00
2019-05-25T08:42:25.149Z,27.00
2019-05-25T08:44:53.974Z,27.10
2019-05-25T08:47:22.836Z,27.00
2019-05-25T08:49:51.700Z,27.00
2019-05-25T08:52:20.689Z,26.80
2019-05-25T08:54:49.505Z,27.00
2019-05-25T08:57:18.758Z,26.80
2019-05-25T08:59:47.818Z,26.50
2019-05-25T09:02:16.654Z,26.70
2019-05-25T09:04:45.525Z,26.80
2019-05-25T09:07:14.725Z,27.10
2019-05-25T09:09:43.627Z,27.20
2019-05-25T09:12:12.410Z,27.30
2019-05-25T09:14:41.243Z,27.40
2019-05-25T09:17:10.095Z,27.40
2019-05-25T09:19:38.914Z,27.40
2019-05-25T09:22:07.900Z,27.40
2019-05-25T09:24:36.785Z,27.70
2019-05-25T09:27:05.619Z,27.50
2019-05-25T09:29:34.498Z,27.50
2019-05-25T09:32:06.784Z,27.30
2019-05-25T09:34:33.855Z,27.40
2019-05-25T09:37:02.719Z,27.80
2019-05-25T09:39:33.566Z,27.60
2019-05-25T09:42:02.065Z,27.80
2019-05-25T09:44:30.920Z,28.00
2019-05-25T09:46:59.834Z,28.20
2019-05-25T09:49:28.700Z,28.10
2019-05-25T09:51:57.532Z,28.10
2019-05-25T09:54:26.514Z,28.10
2019-05-25T09:56:55.371Z,28.30
2019-05-25T09:59:24.267Z,28.10
2019-05-25T10:01:53.162Z,27.80
2019-05-25T10:04:21.972Z,27.60
2019-05-25T10:06:50.850Z,27.40
2019-05-25T10:09:19.679Z,27.20
2019-05-25T10:11:48.543Z,26.70
2019-05-25T10:14:17.397Z,26.60
2019-05-25T10:16:46.263Z,26.40
2019-05-25T10:19:15.115Z,26.30
2019-05-25T10:21:43.996Z,26.20
2019-05-25T10:24:12.875Z,25.80
2019-05-25T10:26:41.757Z,25.60
2019-05-25T10:29:10.567Z,25.40
2019-05-25T10:31:39.425Z,25.40
2019-05-25T10:34:08.246Z,25.50
2019-05-25T10:36:37.141Z,25.50
2019-05-25T10:39:08.297Z,25.60
2019-05-25T10:41:37.138Z,25.60
2019-05-25T10:44:06.015Z,25.60
2019-05-25T10:46:34.850Z,25.60
2019-05-25T10:49:03.732Z,25.60
2019-05-25T10:51:32.593Z,25.50
2019-05-25T10:54:01.428Z,25.60
2019-05-25T10:56:30.272Z,25.60
2019-05-25T10:58:59.099Z,25.40
2019-05-25T11:01:27.973Z,25.40
2019-05-25T11:03:56.869Z,25.10
2019-05-25T11:06:25.687Z,24.90
2019-05-25T11:08:54.551Z,24.70
2019-05-25T11:11:23.370Z,24.20
2019-05-25T11:13:52.240Z,23.80
2019-05-25T11:16:21.119Z,23.80
2019-05-25T11:18:49.951Z,23.70
2019-05-25T11:21:18.832Z,23.70
2019-05-25T11:23:47.755Z,23.60
2019-05-25T11:26:16.636Z,23.50
2019-05-25T11:28:45.486Z,23.40
2019-05-25T11:31:14.335Z,23.30
2019-05-25T11:33:43.373Z,23.20
2019-05-25T11:36:12.245Z,23.10
2019-05-25T11:38:41.119Z,23.10
2019-05-25T11:41:09.978Z,23.00
2019-05-25T11:43:40.384Z,23.00
2019-05-25T11:46:09.258Z,23.00
2019-05-25T11:48:38.087Z,23.00
2019-05-25T11:51:06.961Z,22.80
2019-05-25T11:53:35.819Z,22.70
2019-05-25T11:56:04.663Z,22.40
2019-05-25T11:58:46.602Z,22.10
2019-05-25T12:01:04.932Z,21.90
2019-05-25T12:03:33.825Z,21.70
2019-05-25T12:06:02.659Z,21.60
2019-05-25T12:08:31.485Z,21.40
2019-05-25T12:11:00.738Z,21.10
2019-05-25T12:13:32.041Z,21.10
2019-05-25T12:16:00.104Z,21.00
2019-05-25T12:18:28.957Z,20.90
2019-05-25T12:20:59.170Z,20.60
2019-05-25T12:23:27.995Z,20.30
2019-05-25T12:25:56.857Z,20.10
2019-05-25T12:28:25.748Z,20.10
2019-05-25T12:30:54.584Z,20.00
2019-05-25T12:33:23.468Z,19.90
2019-05-25T12:35:52.318Z,19.90
2019-05-25T12:38:21.129Z,20.00
2019-05-25T12:40:53.664Z,20.10
2019-05-25T12:43:20.483Z,20.10
2019-05-25T12:45:50.057Z,20.00
2019-05-25T12:48:18.881Z,20.10
2019-05-25T12:50:47.721Z,20.00
2019-05-25T12:53:16.601Z,20.00
2019-05-25T12:55:45.432Z,20.00
2019-05-25T12:58:14.312Z,19.70
2019-05-25T13:00:55.207Z,19.60
2019-05-25T13:03:15.629Z,19.50
2019-05-25T13:05:44.530Z,19.40
2019-05-25T13:08:13.375Z,19.30
2019-05-25T13:10:42.243Z,19.20
2019-05-25T13:13:11.079Z,19.10
2019-05-25T13:15:39.964Z,19.10
2019-05-25T13:18:08.819Z,19.20
2019-05-25T13:20:37.669Z,19.20
2019-05-25T13:23:06.556Z,19.20
2019-05-25T13:25:35.383Z,19.20
2019-05-25T13:28:04.282Z,19.40
2019-05-25T13:30:33.178Z,19.50
2019-05-25T13:33:02.025Z,19.60
2019-05-25T13:35:31.204Z,19.70
2019-05-25T13:38:01.137Z,19.60
2019-05-25T13:40:30.035Z,19.40
2019-05-25T13:42:58.895Z,19.30
2019-05-25T13:45:27.751Z,19.10
2019-05-25T13:47:56.625Z,19.00
2019-05-25T13:50:25.467Z,18.80
2019-05-25T13:52:54.354Z,18.80
2019-05-25T13:55:23.248Z,18.80
2019-05-25T13:57:52.119Z,18.80
2019-05-25T14:00:21.081Z,19.00
2019-05-25T14:02:49.912Z,19.10
2019-05-25T14:05:18.912Z,19.10
2019-05-25T14:07:47.765Z,19.00
2019-05-25T14:10:16.588Z,18.90
2019-05-25T14:12:45.546Z,19.00
2019-05-25T14:15:14.571Z,19.10
2019-05-25T14:17:43.457Z,19.10
2019-05-25T14:20:12.501Z,19.20
2019-05-25T14:22:41.373Z,19.30
2019-05-25T14:25:11.304Z,19.50
2019-05-25T14:27:40.149Z,19.70
2019-05-25T14:30:09.822Z,19.80
2019-05-25T14:32:38.656Z,19.90
2019-05-25T14:35:07.800Z,19.80
2019-05-25T14:37:36.673Z,19.70
2019-05-25T14:40:11.432Z,19.60
2019-05-25T14:42:39.931Z,19.60
2019-05-25T14:45:09.859Z,19.50
2019-05-25T14:47:38.709Z,19.50
2019-05-25T14:50:08.975Z,19.50
2019-05-25T14:52:37.816Z,19.60
2019-05-25T14:55:08.987Z,19.70
2019-05-25T14:57:37.819Z,19.80
2019-05-25T15:00:09.038Z,19.90
2019-05-25T15:02:37.906Z,19.90
2019-05-25T15:05:07.283Z,20.10
2019-05-25T15:07:36.226Z,20.20
2019-05-25T15:10:09.665Z,20.30
2019-05-25T15:12:38.615Z,20.40
2019-05-25T15:15:08.841Z,20.40
2019-05-25T15:17:37.725Z,20.50
2019-05-25T15:20:09.473Z,20.50
2019-05-25T15:22:38.316Z,20.50
2019-05-25T15:25:08.486Z,20.50
2019-05-25T15:27:37.487Z,20.50
2019-05-25T15:30:07.318Z,20.50
2019-05-25T15:32:36.212Z,20.40
2019-05-25T15:35:06.908Z,20.40
2019-05-25T15:37:35.824Z,20.40
2019-05-25T15:40:07.717Z,20.30
2019-05-25T15:42:36.592Z,20.30
2019-05-25T15:45:07.164Z,20.30
2019-05-25T15:47:35.965Z,20.20
2019-05-25T15:50:07.971Z,20.20
2019-05-25T15:52:36.813Z,20.20
2019-05-25T15:55:09.576Z,20.20
2019-05-25T15:57:38.527Z,20.20
2019-05-25T16:00:13.369Z,20.10
2019-05-25T16:02:42.286Z,20.10
2019-05-25T16:05:11.431Z,20.10
2019-05-25T16:07:43.180Z,20.10
2019-05-25T16:10:12.263Z,20.10
2019-05-25T16:12:41.103Z,20.20
2019-05-25T16:15:10.195Z,20.20
2019-05-25T16:17:39.677Z,20.20
2019-05-25T16:20:08.630Z,20.20
2019-05-25T16:22:37.495Z,20.20
2019-05-25T16:25:07.786Z,20.20
2019-05-25T16:27:36.667Z,20.30
2019-05-25T16:30:06.714Z,20.30
2019-05-25T16:33:07.246Z,20.30
2019-05-25T16:35:06.916Z,20.30
2019-05-25T16:37:37.481Z,20.40
2019-05-25T16:40:07.609Z,20.30
2019-05-25T16:42:37.155Z,20.30
2019-05-25T16:45:07.642Z,20.30
2019-05-25T16:47:36.591Z,20.20
2019-05-25T16:50:07.478Z,20.30
2019-05-25T16:52:36.324Z,20.30
2019-05-25T16:55:09.676Z,20.30
2019-05-25T16:57:38.568Z,20.20
2019-05-25T17:00:08.593Z,20.20
2019-05-25T17:02:38.589Z,20.20
2019-05-25T17:05:07.831Z,20.10
2019-05-25T17:07:36.667Z,20.10
2019-05-25T17:10:06.635Z,20.10
2019-05-25T17:12:35.458Z,20.00
2019-05-25T17:15:06.546Z,19.90
2019-05-25T17:17:35.377Z,19.80
2019-05-25T17:20:05.760Z,19.70
2019-05-25T17:22:34.604Z,19.70
2019-05-25T17:25:04.078Z,19.70
2019-05-25T17:27:32.957Z,19.80
2019-05-25T17:30:01.822Z,19.80
2019-05-25T17:32:30.808Z,19.80
2019-05-25T17:34:59.668Z,19.70
2019-05-25T17:37:28.547Z,19.70
2019-05-25T17:39:57.421Z,19.70
2019-05-25T17:42:26.259Z,19.60
2019-05-25T17:44:55.131Z,19.70
2019-05-25T17:47:23.982Z,19.60
2019-05-25T17:49:53.090Z,19.60
2019-05-25T17:52:22.837Z,19.60
2019-05-25T17:54:52.047Z,19.60
2019-05-25T17:57:20.990Z,19.60
2019-05-25T17:59:49.838Z,19.60
2019-05-25T18:02:18.682Z,19.60
2019-05-25T18:04:47.553Z,19.50
2019-05-25T18:07:16.409Z,19.50
2019-05-25T18:09:45.339Z,19.50
2019-05-25T18:12:14.181Z,19.50
2019-05-25T18:14:43.038Z,19.50
2019-05-25T18:17:11.930Z,19.50
2019-05-25T18:19:40.755Z,19.40
2019-05-25T18:22:10.545Z,19.40
2019-05-25T18:24:39.407Z,19.30
2019-05-25T18:27:08.251Z,19.20
2019-05-25T18:29:37.145Z,19.30
2019-05-25T18:32:05.989Z,19.20
2019-05-25T18:34:34.887Z,19.20
2019-05-25T18:37:03.756Z,19.20
2019-05-25T18:39:32.574Z,19.20
2019-05-25T18:42:01.447Z,19.10
2019-05-25T18:44:30.278Z,19.00
2019-05-25T18:46:59.188Z,19.00
2019-05-25T18:49:29.486Z,19.00
2019-05-25T18:51:58.316Z,19.00
2019-05-25T18:54:27.218Z,19.00
2019-05-25T18:56:56.033Z,18.90
2019-05-25T18:59:24.991Z,18.90
2019-05-25T19:01:53.874Z,18.80
2019-05-25T19:04:42.281Z,18.80
2019-05-25T19:06:53.242Z,18.70
2019-05-25T19:09:22.086Z,18.60
2019-05-25T19:11:50.985Z,18.50
2019-05-25T19:14:19.801Z,18.50
2019-05-25T19:16:48.669Z,18.50
2019-05-25T19:19:17.509Z,18.50
2019-05-25T19:21:46.353Z,18.60
2019-05-25T19:24:15.236Z,18.60
2019-05-25T19:26:44.066Z,18.60
2019-05-25T19:29:12.913Z,18.60
2019-05-25T19:31:41.773Z,18.60
2019-05-25T19:34:10.629Z,18.60
2019-05-25T19:36:39.691Z,18.60
2019-05-25T19:39:09.127Z,18.70
2019-05-25T19:41:37.948Z,18.70
2019-05-25T19:44:06.830Z,18.70
2019-05-25T19:46:35.657Z,18.70
2019-05-25T19:49:04.651Z,18.60
2019-05-25T19:51:33.505Z,18.50
2019-05-25T19:54:02.448Z,18.40
2019-05-25T19:56:32.178Z,18.50
2019-05-25T19:59:01.002Z,18.60
2019-05-25T20:01:29.858Z,18.60
2019-05-25T20:03:58.749Z,18.60
2019-05-25T20:06:27.584Z,18.60
2019-05-25T20:08:56.464Z,18.50
2019-05-25T20:11:25.305Z,18.50
2019-05-25T20:13:54.149Z,18.40
2019-05-25T20:16:25.126Z,18.30
2019-05-25T20:18:53.489Z,18.30
2019-05-25T20:21:22.393Z,18.30
2019-05-25T20:23:51.227Z,18.30
2019-05-25T20:26:20.078Z,18.30
2019-05-25T20:28:50.821Z,18.30
2019-05-25T20:31:19.450Z,18.30
2019-05-25T20:33:48.323Z,18.30
2019-05-25T20:36:17.178Z,18.30
2019-05-25T20:38:46.003Z,18.30
2019-05-25T20:41:14.852Z,18.20
2019-05-25T20:43:43.691Z,18.20
2019-05-25T20:46:12.575Z,18.30
2019-05-25T20:48:41.399Z,18.20
2019-05-25T20:51:10.224Z,18.20
2019-05-25T20:53:39.113Z,18.10
2019-05-25T20:56:07.943Z,18.20
2019-05-25T20:58:39.071Z,18.20
2019-05-25T21:01:07.321Z,18.10
2019-05-25T21:03:36.151Z,18.10
2019-05-25T21:06:05.123Z,18.10
2019-05-25T21:08:33.956Z,18.10
2019-05-25T21:11:02.886Z,18.10
2019-05-25T21:13:31.684Z,18.20
2019-05-25T21:16:00.517Z,18.00
2019-05-25T21:18:29.393Z,18.10
2019-05-25T21:20:58.219Z,18.20
2019-05-25T21:23:27.094Z,18.10
2019-05-25T21:25:55.918Z,18.10
2019-05-25T21:28:24.766Z,18.00
2019-05-25T21:30:53.636Z,18.00
2019-05-25T21:33:22.461Z,18.10
2019-05-25T21:36:07.038Z,18.00
2019-05-25T21:38:21.828Z,18.00
2019-05-25T21:40:50.778Z,18.00
2019-05-25T21:43:19.622Z,18.10
2019-05-25T21:45:49.930Z,18.20
2019-05-25T21:48:18.817Z,18.10
2019-05-25T21:50:47.675Z,18.10
2019-05-25T21:53:16.510Z,18.00
2019-05-25T21:55:45.353Z,17.90
2019-05-25T21:58:14.189Z,17.90
2019-05-25T22:00:43.671Z,17.90
2019-05-25T22:03:12.531Z,17.90
2019-05-25T22:05:41.363Z,17.80
2019-05-25T22:08:10.238Z,17.90
2019-05-25T22:10:39.076Z,17.90
2019-05-25T22:13:24.920Z,17.90
2019-05-25T22:15:38.455Z,17.80
2019-05-25T22:18:07.359Z,17.70
2019-05-25T22:20:36.241Z,17.70
2019-05-25T22:23:05.059Z,17.70
2019-05-25T22:25:33.973Z,17.70
2019-05-25T22:28:02.797Z,17.70
2019-05-25T22:30:31.613Z,17.80
2019-05-25T22:33:00.480Z,17.80
2019-05-25T22:35:29.317Z,17.80
2019-05-25T22:37:58.218Z,17.80
2019-05-25T22:40:27.043Z,17.70
2019-05-25T22:42:55.880Z,17.70
2019-05-25T22:45:24.751Z,17.70
2019-05-25T22:47:53.575Z,17.60
2019-05-25T22:50:22.539Z,17.60
2019-05-25T22:52:51.386Z,17.50
2019-05-25T22:55:20.263Z,17.50
2019-05-25T22:57:49.235Z,17.50
2019-05-25T23:00:19.577Z,17.40
2019-05-25T23:02:48.420Z,17.40
2019-05-25T23:05:17.391Z,17.30
2019-05-25T23:07:46.243Z,17.30
2019-05-25T23:10:15.236Z,17.30
2019-05-25T23:12:44.094Z,17.30
2019-05-25T23:15:13.038Z,17.30
2019-05-25T23:17:41.897Z,17.30
2019-05-25T23:20:10.842Z,17.30
2019-05-25T23:22:39.721Z,17.30
2019-05-25T23:25:08.560Z,17.20
2019-05-25T23:27:37.400Z,17.20
2019-05-25T23:30:07.492Z,17.20
2019-05-25T23:32:36.323Z,17.20
2019-05-25T23:35:05.922Z,17.10
2019-05-25T23:37:34.729Z,17.20
2019-05-25T23:40:05.552Z,17.20
2019-05-25T23:42:34.442Z,17.30
2019-05-25T23:45:03.292Z,17.30
2019-05-25T23:47:32.187Z,17.40
2019-05-25T23:50:01.046Z,17.40
2019-05-25T23:52:29.894Z,17.40
2019-05-25T23:54:58.763Z,17.40
2019-05-25T23:57:27.625Z,17.40
2019-05-25T23:59:56.528Z,17.40
